sensor_id;sensor_type;location;lat;lon;timestamp;pressure;altitude;pressure_sealevel;temperature;humidity
56334;BME280;42240;53.626;55.886;2023-11-19T00:00:51;78408.06;;;-145.10;100.00
56334;BME280;42240;53.626;55.886;2023-11-19T00:02:43;78392.22;;;-145.10;100.00
56334;BME280;42240;53.626;55.886;2023-11-19T00:04:38;78398.16;;;-145.10;100.00
56334;BME280;42240;53.626;55.886;2023-11-19T00:06:33;78394.22;;;-145.10;100.00
56334;BME280;42240;53.626;55.886;2023-11-19T00:08:24;78398.16;;;-145.10;100.00
56334;BME280;42240;53.626;55.886;2023-11-19T00:10:16;78408.06;;;-145.10;100.00
56334;BME280;42240;53.626;55.886;2023-11-19T00:12:11;78412.00;;;-145.10;100.00
56334;BME280;42240;53.626;55.886;2023-11-19T00:14:04;78412.00;;;-145.10;100.00
56334;BME280;42240;53.626;55.886;2023-11-19T00:15:59;78388.28;;;-145.10;100.00
56334;BME280;42240;53.626;55.886;2023-11-19T00:17:50;78392.22;;;-145.10;100.00
56334;BME280;42240;53.626;55.886;2023-11-19T00:19:42;78412.00;;;-145.10;100.00
56334;BME280;42240;53.626;55.886;2023-11-19T00:21:33;78384.31;;;-145.10;100.00
56334;BME280;42240;53.626;55.886;2023-11-19T00:23:25;78412.00;;;-145.10;100.00
56334;BME280;42240;53.626;55.886;2023-11-19T00:25:17;78423.88;;;-145.10;100.00
56334;BME280;42240;53.626;55.886;2023-11-19T00:27:09;78419.94;;;-145.10;100.00
56334;BME280;42240;53.626;55.886;2023-11-19T00:29:00;78431.78;;;-145.10;100.00
56334;BME280;42240;53.626;55.886;2023-11-19T00:30:51;78423.88;;;-145.10;100.00
56334;BME280;42240;53.626;55.886;2023-11-19T00:32:44;78421.91;;;-145.10;100.00
56334;BME280;42240;53.626;55.886;2023-11-19T00:34:36;78441.69;;;-145.10;100.00
56334;BME280;42240;53.626;55.886;2023-11-19T00:36:27;78443.66;;;-145.10;100.00
56334;BME280;42240;53.626;55.886;2023-11-19T00:38:19;78479.28;;;-145.10;100.00
56334;BME280;42240;53.626;55.886;2023-11-19T00:40:10;78510.94;;;-145.10;100.00
56334;BME280;42240;53.626;55.886;2023-11-19T00:42:02;78520.81;;;-145.10;100.00
56334;BME280;42240;53.626;55.886;2023-11-19T00:43:54;78510.94;;;-145.10;100.00
56334;BME280;42240;53.626;55.886;2023-11-19T00:45:46;78544.56;;;-145.10;100.00
56334;BME280;42240;53.626;55.886;2023-11-19T00:47:38;78562.38;;;-145.10;100.00
56334;BME280;42240;53.626;55.886;2023-11-19T00:49:29;78570.28;;;-145.10;100.00
56334;BME280;42240;53.626;55.886;2023-11-19T00:51:21;78574.22;;;-145.10;100.00
56334;BME280;42240;53.626;55.886;2023-11-19T00:53:12;78576.22;;;-145.10;100.00
56334;BME280;42240;53.626;55.886;2023-11-19T00:55:04;78594.03;;;-145.10;100.00
56334;BME280;42240;53.626;55.886;2023-11-19T00:56:56;78590.06;;;-145.10;100.00
56334;BME280;42240;53.626;55.886;2023-11-19T00:58:47;78599.94;;;-145.10;100.00
56334;BME280;42240;53.626;55.886;2023-11-19T01:00:39;78594.03;;;-145.10;100.00
56334;BME280;42240;53.626;55.886;2023-11-19T01:02:31;78586.09;;;-145.10;100.00
56334;BME280;42240;53.626;55.886;2023-11-19T01:04:22;78582.16;;;-145.10;100.00
56334;BME280;42240;53.626;55.886;2023-11-19T01:06:15;78582.16;;;-145.10;100.00
56334;BME280;42240;53.626;55.886;2023-11-19T01:08:17;78609.84;;;-145.10;100.00
56334;BME280;42240;53.626;55.886;2023-11-19T01:10:08;78607.88;;;-145.10;100.00
56334;BME280;42240;53.626;55.886;2023-11-19T01:12:00;78613.81;;;-145.10;100.00
56334;BME280;42240;53.626;55.886;2023-11-19T01:13:52;78621.72;;;-145.10;100.00
56334;BME280;42240;53.626;55.886;2023-11-19T01:15:43;78615.78;;;-145.10;100.00
56334;BME280;42240;53.626;55.886;2023-11-19T01:17:36;78601.94;;;-145.10;100.00
56334;BME280;42240;53.626;55.886;2023-11-19T01:19:27;78617.75;;;-145.10;100.00
56334;BME280;42240;53.626;55.886;2023-11-19T01:21:19;78613.81;;;-145.10;100.00
56334;BME280;42240;53.626;55.886;2023-11-19T01:23:11;78621.72;;;-145.10;100.00
56334;BME280;42240;53.626;55.886;2023-11-19T01:25:03;78607.88;;;-145.10;100.00
56334;BME280;42240;53.626;55.886;2023-11-19T01:26:56;78633.59;;;-145.10;100.00
56334;BME280;42240;53.626;55.886;2023-11-19T01:28:49;78643.47;;;-145.10;100.00
56334;BME280;42240;53.626;55.886;2023-11-19T01:30:43;78673.16;;;-145.10;100.00
56334;BME280;42240;53.626;55.886;2023-11-19T01:32:35;78677.13;;;-145.10;100.00
56334;BME280;42240;53.626;55.886;2023-11-19T01:34:27;78681.06;;;-145.10;100.00
56334;BME280;42240;53.626;55.886;2023-11-19T01:36:19;78694.91;;;-145.10;100.00
56334;BME280;42240;53.626;55.886;2023-11-19T01:38:11;78696.91;;;-145.10;100.00
56334;BME280;42240;53.626;55.886;2023-11-19T01:40:03;78704.81;;;-145.10;100.00
56334;BME280;42240;53.626;55.886;2023-11-19T01:41:55;78669.19;;;-145.10;100.00
56334;BME280;42240;53.626;55.886;2023-11-19T01:43:47;78696.91;;;-145.10;100.00
56334;BME280;42240;53.626;55.886;2023-11-19T01:45:38;78690.97;;;-145.10;100.00
56334;BME280;42240;53.626;55.886;2023-11-19T01:47:31;78688.97;;;-145.10;100.00
56334;BME280;42240;53.626;55.886;2023-11-19T01:49:22;78704.81;;;-145.10;100.00
56334;BME280;42240;53.626;55.886;2023-11-19T01:51:13;78732.50;;;-145.10;100.00
56334;BME280;42240;53.626;55.886;2023-11-19T01:53:07;78744.38;;;-145.10;100.00
56334;BME280;42240;53.626;55.886;2023-11-19T01:54:58;78752.28;;;-145.10;100.00
56334;BME280;42240;53.626;55.886;2023-11-19T01:56:50;78748.34;;;-145.10;100.00
56334;BME280;42240;53.626;55.886;2023-11-19T01:58:43;78744.38;;;-145.10;100.00
56334;BME280;42240;53.626;55.886;2023-11-19T02:00:36;78744.38;;;-145.10;100.00
56334;BME280;42240;53.626;55.886;2023-11-19T02:02:27;78760.22;;;-145.10;100.00
56334;BME280;42240;53.626;55.886;2023-11-19T02:04:21;78772.06;;;-145.10;100.00
56334;BME280;42240;53.626;55.886;2023-11-19T02:06:14;78772.06;;;-145.10;100.00
56334;BME280;42240;53.626;55.886;2023-11-19T02:08:07;78770.09;;;-145.10;100.00
56334;BME280;42240;53.626;55.886;2023-11-19T02:10:00;78744.38;;;-145.10;100.00
56334;BME280;42240;53.626;55.886;2023-11-19T02:11:54;78754.28;;;-145.10;100.00
56334;BME280;42240;53.626;55.886;2023-11-19T02:13:46;78764.16;;;-145.10;100.00
56334;BME280;42240;53.626;55.886;2023-11-19T02:15:38;78787.91;;;-145.10;100.00
56334;BME280;42240;53.626;55.886;2023-11-19T02:17:30;78811.66;;;-145.10;100.00
56334;BME280;42240;53.626;55.886;2023-11-19T02:19:28;78801.75;;;-145.10;100.00
56334;BME280;42240;53.626;55.886;2023-11-19T02:21:20;78803.72;;;-145.10;100.00
56334;BME280;42240;53.626;55.886;2023-11-19T02:23:12;78797.78;;;-145.10;100.00
56334;BME280;42240;53.626;55.886;2023-11-19T02:25:04;78843.31;;;-145.10;100.00
56334;BME280;42240;53.626;55.886;2023-11-19T02:27:02;78811.66;;;-145.10;100.00
56334;BME280;42240;53.626;55.886;2023-11-19T02:29:00;78783.94;;;-145.10;100.00
56334;BME280;42240;53.626;55.886;2023-11-19T02:30:56;78791.88;;;-145.10;100.00
56334;BME280;42240;53.626;55.886;2023-11-19T02:32:48;78815.59;;;-145.10;100.00
56334;BME280;42240;53.626;55.886;2023-11-19T02:34:39;78807.69;;;-145.10;100.00
56334;BME280;42240;53.626;55.886;2023-11-19T02:36:31;78809.66;;;-145.10;100.00
56334;BME280;42240;53.626;55.886;2023-11-19T02:38:24;78803.72;;;-145.10;100.00
56334;BME280;42240;53.626;55.886;2023-11-19T02:40:15;78807.69;;;-145.10;100.00
56334;BME280;42240;53.626;55.886;2023-11-19T02:42:07;78845.28;;;-145.10;100.00
56334;BME280;42240;53.626;55.886;2023-11-19T02:43:59;78839.34;;;-145.10;100.00
56334;BME280;42240;53.626;55.886;2023-11-19T02:45:50;78851.22;;;-145.10;100.00
56334;BME280;42240;53.626;55.886;2023-11-19T02:47:42;78859.13;;;-145.10;100.00
56334;BME280;42240;53.626;55.886;2023-11-19T02:49:33;78839.34;;;-145.10;100.00
56334;BME280;42240;53.626;55.886;2023-11-19T02:51:24;78857.16;;;-145.10;100.00
56334;BME280;42240;53.626;55.886;2023-11-19T02:53:16;78878.91;;;-145.10;100.00
56334;BME280;42240;53.626;55.886;2023-11-19T02:55:08;78918.50;;;-145.10;100.00
56334;BME280;42240;53.626;55.886;2023-11-19T02:57:03;78894.75;;;-145.10;100.00
56334;BME280;42240;53.626;55.886;2023-11-19T02:58:55;78869.03;;;-145.10;100.00
56334;BME280;42240;53.626;55.886;2023-11-19T03:00:47;78857.16;;;-145.10;100.00
56334;BME280;42240;53.626;55.886;2023-11-19T03:02:44;78837.38;;;-145.10;100.00
56334;BME280;42240;53.626;55.886;2023-11-19T03:04:38;78837.38;;;-145.10;100.00
56334;BME280;42240;53.626;55.886;2023-11-19T03:06:33;78892.75;;;-145.10;100.00
56334;BME280;42240;53.626;55.886;2023-11-19T03:08:25;78906.63;;;-145.10;100.00
56334;BME280;42240;53.626;55.886;2023-11-19T03:10:16;78904.63;;;-145.10;100.00
56334;BME280;42240;53.626;55.886;2023-11-19T03:12:07;78902.66;;;-145.10;100.00
56334;BME280;42240;53.626;55.886;2023-11-19T03:13:59;78902.66;;;-145.10;100.00
56334;BME280;42240;53.626;55.886;2023-11-19T03:15:50;78894.75;;;-145.10;100.00
56334;BME280;42240;53.626;55.886;2023-11-19T03:17:42;78912.56;;;-145.10;100.00
56334;BME280;42240;53.626;55.886;2023-11-19T03:19:34;78900.69;;;-145.10;100.00
56334;BME280;42240;53.626;55.886;2023-11-19T03:21:28;78886.81;;;-145.10;100.00
56334;BME280;42240;53.626;55.886;2023-11-19T03:23:20;78930.34;;;-145.10;100.00
56334;BME280;42240;53.626;55.886;2023-11-19T03:25:12;78940.25;;;-145.10;100.00
56334;BME280;42240;53.626;55.886;2023-11-19T03:27:04;78938.28;;;-145.10;100.00
56334;BME280;42240;53.626;55.886;2023-11-19T03:28:55;78924.41;;;-145.10;100.00
56334;BME280;42240;53.626;55.886;2023-11-19T03:30:48;78910.56;;;-145.10;100.00
56334;BME280;42240;53.626;55.886;2023-11-19T03:32:39;78894.75;;;-145.10;100.00
56334;BME280;42240;53.626;55.886;2023-11-19T03:34:31;78882.88;;;-145.10;100.00
56334;BME280;42240;53.626;55.886;2023-11-19T03:36:22;78926.41;;;-145.10;100.00
56334;BME280;42240;53.626;55.886;2023-11-19T03:38:14;78928.38;;;-145.10;100.00
56334;BME280;42240;53.626;55.886;2023-11-19T03:40:05;78934.31;;;-145.10;100.00
56334;BME280;42240;53.626;55.886;2023-11-19T03:41:57;78922.44;;;-145.10;100.00
56334;BME280;42240;53.626;55.886;2023-11-19T03:43:48;78924.41;;;-145.10;100.00
56334;BME280;42240;53.626;55.886;2023-11-19T03:45:40;78922.44;;;-145.10;100.00
56334;BME280;42240;53.626;55.886;2023-11-19T03:47:31;78918.50;;;-145.10;100.00
56334;BME280;42240;53.626;55.886;2023-11-19T03:49:22;78918.50;;;-145.10;100.00
56334;BME280;42240;53.626;55.886;2023-11-19T03:51:15;78938.28;;;-145.10;100.00
56334;BME280;42240;53.626;55.886;2023-11-19T03:53:06;78918.50;;;-145.10;100.00
56334;BME280;42240;53.626;55.886;2023-11-19T03:54:58;78926.41;;;-145.10;100.00
56334;BME280;42240;53.626;55.886;2023-11-19T03:56:49;78904.63;;;-145.10;100.00
56334;BME280;42240;53.626;55.886;2023-11-19T03:58:41;78924.41;;;-145.10;100.00
56334;BME280;42240;53.626;55.886;2023-11-19T04:00:33;78950.16;;;-145.10;100.00
56334;BME280;42240;53.626;55.886;2023-11-19T04:02:24;78954.09;;;-145.10;100.00
56334;BME280;42240;53.626;55.886;2023-11-19T04:04:18;78971.91;;;-145.10;100.00
56334;BME280;42240;53.626;55.886;2023-11-19T04:06:09;78965.97;;;-145.10;100.00
56334;BME280;42240;53.626;55.886;2023-11-19T04:08:01;78962.00;;;-145.10;100.00
56334;BME280;42240;53.626;55.886;2023-11-19T04:09:52;78944.22;;;-145.10;100.00
56334;BME280;42240;53.626;55.886;2023-11-19T04:11:43;78946.19;;;-145.10;100.00
56334;BME280;42240;53.626;55.886;2023-11-19T04:13:37;78926.41;;;-145.10;100.00
56334;BME280;42240;53.626;55.886;2023-11-19T04:15:28;78940.25;;;-145.10;100.00
56334;BME280;42240;53.626;55.886;2023-11-19T04:17:20;78920.47;;;-145.10;100.00
56334;BME280;42240;53.626;55.886;2023-11-19T04:19:11;78930.34;;;-145.10;100.00
56334;BME280;42240;53.626;55.886;2023-11-19T04:21:05;78934.31;;;-145.10;100.00
56334;BME280;42240;53.626;55.886;2023-11-19T04:22:57;78930.34;;;-145.10;100.00
56334;BME280;42240;53.626;55.886;2023-11-19T04:24:48;78906.63;;;-145.10;100.00
56334;BME280;42240;53.626;55.886;2023-11-19T04:26:40;78896.72;;;-145.10;100.00
56334;BME280;42240;53.626;55.886;2023-11-19T04:28:33;78916.50;;;-145.10;100.00
56334;BME280;42240;53.626;55.886;2023-11-19T04:30:25;78906.63;;;-145.10;100.00
56334;BME280;42240;53.626;55.886;2023-11-19T04:32:16;78876.94;;;-145.10;100.00
56334;BME280;42240;53.626;55.886;2023-11-19T04:34:08;78799.78;;;-145.10;100.00
56334;BME280;42240;53.626;55.886;2023-11-19T04:35:59;78526.75;;;-145.10;100.00
56334;BME280;42240;53.626;55.886;2023-11-19T04:37:50;78303.22;;;-145.10;100.00
56334;BME280;42240;53.626;55.886;2023-11-19T04:39:43;78166.72;;;-145.10;100.00
56334;BME280;42240;53.626;55.886;2023-11-19T04:41:35;78075.72;;;-145.10;100.00
56334;BME280;42240;53.626;55.886;2023-11-19T04:43:27;77996.59;;;-145.10;100.00
56334;BME280;42240;53.626;55.886;2023-11-19T04:45:18;77957.03;;;-145.10;100.00
56334;BME280;42240;53.626;55.886;2023-11-19T04:47:11;77905.59;;;-145.10;97.21
56334;BME280;42240;53.626;55.886;2023-11-19T04:49:02;77852.19;;;-145.10;93.88
56334;BME280;42240;53.626;55.886;2023-11-19T04:50:55;77775.06;;;-145.10;92.30
56334;BME280;42240;53.626;55.886;2023-11-19T04:52:47;77814.59;;;-145.10;85.13
56334;BME280;42240;53.626;55.886;2023-11-19T04:54:44;77680.09;;;-145.10;89.24
56334;BME280;42240;53.626;55.886;2023-11-19T04:56:38;77636.59;;;-145.10;82.96
56334;BME280;42240;53.626;55.886;2023-11-19T04:58:30;77597.03;;;-145.10;79.69
56334;BME280;42240;53.626;55.886;2023-11-19T05:00:21;77557.47;;;-145.10;76.81
56334;BME280;42240;53.626;55.886;2023-11-19T05:02:13;77492.22;;;-145.10;78.21
56334;BME280;42240;53.626;55.886;2023-11-19T05:04:07;77529.78;;;-145.10;73.74
56334;BME280;42240;53.626;55.886;2023-11-19T05:05:59;77502.09;;;-145.10;68.71
56334;BME280;42240;53.626;55.886;2023-11-19T05:07:50;77452.66;;;-145.10;74.72
56334;BME280;42240;53.626;55.886;2023-11-19T05:09:41;77395.28;;;-145.10;69.51
56334;BME280;42240;53.626;55.886;2023-11-19T05:11:34;77488.25;;;-145.10;61.86
56334;BME280;42240;53.626;55.886;2023-11-19T05:13:25;77529.78;;;-145.10;61.78
56334;BME280;42240;53.626;55.886;2023-11-19T05:15:17;77541.66;;;-145.10;64.41
56334;BME280;42240;53.626;55.886;2023-11-19T05:17:08;77569.34;;;-145.10;70.28
56334;BME280;42240;53.626;55.886;2023-11-19T05:19:00;77494.19;;;-145.10;66.06
56334;BME280;42240;53.626;55.886;2023-11-19T05:20:51;77446.72;;;-145.10;65.66
56334;BME280;42240;53.626;55.886;2023-11-19T05:22:43;77375.53;;;-145.10;64.67
56334;BME280;42240;53.626;55.886;2023-11-19T05:24:34;77375.53;;;-145.10;57.86
56334;BME280;42240;53.626;55.886;2023-11-19T05:26:27;77490.22;;;-145.10;56.72
56334;BME280;42240;53.626;55.886;2023-11-19T05:28:18;77448.69;;;-145.10;58.44
56334;BME280;42240;53.626;55.886;2023-11-19T05:30:10;77373.53;;;-145.10;58.83
56334;BME280;42240;53.626;55.886;2023-11-19T05:32:02;77444.75;;;-145.10;58.01
56334;BME280;42240;53.626;55.886;2023-11-19T05:33:53;77462.53;;;-145.10;54.47
56334;BME280;42240;53.626;55.886;2023-11-19T05:35:44;77466.50;;;-145.10;54.94
56334;BME280;42240;53.626;55.886;2023-11-19T05:37:36;77419.03;;;-145.10;54.24
56334;BME280;42240;53.626;55.886;2023-11-19T05:39:28;77403.22;;;-145.10;52.41
56334;BME280;42240;53.626;55.886;2023-11-19T05:41:19;77375.53;;;-145.10;53.51
56334;BME280;42240;53.626;55.886;2023-11-19T05:43:11;77379.47;;;-145.10;52.15
56334;BME280;42240;53.626;55.886;2023-11-19T05:45:02;77399.25;;;-145.10;51.72
56334;BME280;42240;53.626;55.886;2023-11-19T05:46:54;77347.81;;;-145.10;53.10
56334;BME280;42240;53.626;55.886;2023-11-19T05:48:45;77330.03;;;-145.10;53.40
56334;BME280;42240;53.626;55.886;2023-11-19T05:50:38;77318.16;;;-145.10;50.30
56334;BME280;42240;53.626;55.886;2023-11-19T05:52:29;77423.00;;;-145.10;46.75
56334;BME280;42240;53.626;55.886;2023-11-19T05:54:24;77367.59;;;-145.10;50.66
56334;BME280;42240;53.626;55.886;2023-11-19T05:56:16;77417.06;;;-145.10;49.99
56334;BME280;42240;53.626;55.886;2023-11-19T05:58:12;77351.78;;;-145.10;51.49
56334;BME280;42240;53.626;55.886;2023-11-19T06:00:04;77324.09;;;-145.10;50.75
56334;BME280;42240;53.626;55.886;2023-11-19T06:02:04;77282.56;;;-145.10;50.34
56334;BME280;42240;53.626;55.886;2023-11-19T06:03:56;77335.97;;;-145.10;47.87
56334;BME280;42240;53.626;55.886;2023-11-19T06:05:48;77292.44;;;-145.10;47.81
56334;BME280;42240;53.626;55.886;2023-11-19T06:07:40;77324.09;;;-145.10;46.80
56334;BME280;42240;53.626;55.886;2023-11-19T06:09:32;77314.22;;;-145.10;47.46
56334;BME280;42240;53.626;55.886;2023-11-19T06:11:25;77403.22;;;-145.10;49.15
56334;BME280;42240;53.626;55.886;2023-11-19T06:13:18;77454.63;;;-145.10;52.09
56334;BME280;42240;53.626;55.886;2023-11-19T06:15:12;77415.06;;;-145.10;52.48
56334;BME280;42240;53.626;55.886;2023-11-19T06:17:04;77462.53;;;-145.10;51.68
56334;BME280;42240;53.626;55.886;2023-11-19T06:18:56;77537.69;;;-145.10;53.16
56334;BME280;42240;53.626;55.886;2023-11-19T06:20:47;77585.16;;;-145.10;55.82
56334;BME280;42240;53.626;55.886;2023-11-19T06:22:40;77640.56;;;-145.10;62.09
56334;BME280;42240;53.626;55.886;2023-11-19T06:24:34;77660.34;;;-145.10;63.44
56334;BME280;42240;53.626;55.886;2023-11-19T06:26:28;77670.22;;;-145.10;68.15
56334;BME280;42240;53.626;55.886;2023-11-19T06:28:20;77656.38;;;-145.10;71.16
56334;BME280;42240;53.626;55.886;2023-11-19T06:30:11;77699.88;;;-145.10;69.45
56334;BME280;42240;53.626;55.886;2023-11-19T06:32:03;77757.25;;;-145.10;72.10
56334;BME280;42240;53.626;55.886;2023-11-19T06:34:04;77771.09;;;-145.10;74.08
56334;BME280;42240;53.626;55.886;2023-11-19T06:35:55;77826.47;;;-145.10;75.22
56334;BME280;42240;53.626;55.886;2023-11-19T06:37:47;77856.16;;;-145.10;76.72
56334;BME280;42240;53.626;55.886;2023-11-19T06:39:38;77909.56;;;-145.10;76.78
56334;BME280;42240;53.626;55.886;2023-11-19T06:41:31;77889.78;;;-145.10;80.77
56334;BME280;42240;53.626;55.886;2023-11-19T06:43:25;77923.41;;;-145.10;81.84
56334;BME280;42240;53.626;55.886;2023-11-19T06:45:31;77933.28;;;-145.10;82.37
56334;BME280;42240;53.626;55.886;2023-11-19T06:47:26;78016.38;;;-145.10;84.02
56334;BME280;42240;53.626;55.886;2023-11-19T06:49:18;78034.19;;;-145.10;85.83
56334;BME280;42240;53.626;55.886;2023-11-19T06:51:12;78044.06;;;-145.10;88.14
56334;BME280;42240;53.626;55.886;2023-11-19T06:53:04;78044.06;;;-145.10;88.98
56334;BME280;42240;53.626;55.886;2023-11-19T06:54:57;78101.44;;;-145.10;89.94
56334;BME280;42240;53.626;55.886;2023-11-19T06:56:52;78077.69;;;-145.10;91.86
56334;BME280;42240;53.626;55.886;2023-11-19T06:58:44;78055.94;;;-145.10;93.94
56334;BME280;42240;53.626;55.886;2023-11-19T07:00:35;78087.59;;;-145.10;94.85
56334;BME280;42240;53.626;55.886;2023-11-19T07:02:29;78069.78;;;-145.10;96.28
56334;BME280;42240;53.626;55.886;2023-11-19T07:04:21;78071.75;;;-145.10;94.84
56334;BME280;42240;53.626;55.886;2023-11-19T07:06:16;78083.63;;;-145.10;94.38
56334;BME280;42240;53.626;55.886;2023-11-19T07:08:08;78166.72;;;-145.10;93.35
56334;BME280;42240;53.626;55.886;2023-11-19T07:10:00;78139.03;;;-145.10;98.47
56334;BME280;42240;53.626;55.886;2023-11-19T07:11:52;78127.16;;;-145.10;97.98
56334;BME280;42240;53.626;55.886;2023-11-19T07:13:44;78093.53;;;-145.10;98.48
56334;BME280;42240;53.626;55.886;2023-11-19T07:15:37;78057.91;;;-145.10;96.34
56334;BME280;42240;53.626;55.886;2023-11-19T07:17:30;78119.22;;;-145.10;94.77
56334;BME280;42240;53.626;55.886;2023-11-19T07:19:21;78107.38;;;-145.10;95.35
56334;BME280;42240;53.626;55.886;2023-11-19T07:21:13;78131.09;;;-145.10;97.76
56334;BME280;42240;53.626;55.886;2023-11-19T07:23:05;78117.25;;;-145.10;97.54
56334;BME280;42240;53.626;55.886;2023-11-19T07:24:59;78127.16;;;-145.10;97.72
56334;BME280;42240;53.626;55.886;2023-11-19T07:26:51;78119.22;;;-145.10;98.65
56334;BME280;42240;53.626;55.886;2023-11-19T07:28:42;78069.78;;;-145.10;96.83
56334;BME280;42240;53.626;55.886;2023-11-19T07:30:36;78083.63;;;-145.10;95.34
56334;BME280;42240;53.626;55.886;2023-11-19T07:32:28;78099.44;;;-145.10;94.66
56334;BME280;42240;53.626;55.886;2023-11-19T07:34:20;78087.59;;;-145.10;97.91
56334;BME280;42240;53.626;55.886;2023-11-19T07:36:12;78097.47;;;-145.10;96.25
56334;BME280;42240;53.626;55.886;2023-11-19T07:38:04;78095.50;;;-145.10;94.57
56334;BME280;42240;53.626;55.886;2023-11-19T07:39:56;78103.41;;;-145.10;96.01
56334;BME280;42240;53.626;55.886;2023-11-19T07:41:47;78119.22;;;-145.10;95.11
56334;BME280;42240;53.626;55.886;2023-11-19T07:43:39;78127.16;;;-145.10;93.89
56334;BME280;42240;53.626;55.886;2023-11-19T07:45:32;78158.78;;;-145.10;92.17
56334;BME280;42240;53.626;55.886;2023-11-19T07:47:24;78154.84;;;-145.10;94.61
56334;BME280;42240;53.626;55.886;2023-11-19T07:49:15;78101.44;;;-145.10;96.90
56334;BME280;42240;53.626;55.886;2023-11-19T07:51:11;78111.31;;;-145.10;98.22
56334;BME280;42240;53.626;55.886;2023-11-19T07:53:08;78115.28;;;-145.10;97.18
56334;BME280;42240;53.626;55.886;2023-11-19T07:55:00;78089.56;;;-145.10;98.10
56334;BME280;42240;53.626;55.886;2023-11-19T07:56:52;78097.47;;;-145.10;98.93
56334;BME280;42240;53.626;55.886;2023-11-19T07:58:43;78127.16;;;-145.10;98.67
56334;BME280;42240;53.626;55.886;2023-11-19T08:00:34;78154.84;;;-145.10;97.81
56334;BME280;42240;53.626;55.886;2023-11-19T08:02:26;78131.09;;;-145.10;98.22
56334;BME280;42240;53.626;55.886;2023-11-19T08:04:24;78158.78;;;-145.10;97.48
56334;BME280;42240;53.626;55.886;2023-11-19T08:06:36;78206.28;;;-145.10;97.50
56334;BME280;42240;53.626;55.886;2023-11-19T08:08:27;78168.69;;;-145.10;99.43
56334;BME280;42240;53.626;55.886;2023-11-19T08:10:20;78127.16;;;-145.10;100.00
56334;BME280;42240;53.626;55.886;2023-11-19T08:12:12;78107.38;;;-145.10;99.54
56334;BME280;42240;53.626;55.886;2023-11-19T08:14:05;78109.34;;;-145.10;100.00
56334;BME280;42240;53.626;55.886;2023-11-19T08:15:56;78123.19;;;-145.10;99.51
56334;BME280;42240;53.626;55.886;2023-11-19T08:17:49;78146.94;;;-145.10;96.90
56334;BME280;42240;53.626;55.886;2023-11-19T08:19:40;78164.72;;;-145.10;96.38
56334;BME280;42240;53.626;55.886;2023-11-19T08:21:32;78146.94;;;-145.10;96.62
56334;BME280;42240;53.626;55.886;2023-11-19T08:23:24;78142.97;;;-145.10;97.02
56334;BME280;42240;53.626;55.886;2023-11-19T08:25:16;78170.66;;;-145.10;94.22
56334;BME280;42240;53.626;55.886;2023-11-19T08:27:07;78154.84;;;-145.10;96.95
56334;BME280;42240;53.626;55.886;2023-11-19T08:28:59;78148.91;;;-145.10;97.42
56334;BME280;42240;53.626;55.886;2023-11-19T08:30:50;78119.22;;;-145.10;97.86
56334;BME280;42240;53.626;55.886;2023-11-19T08:32:41;78123.19;;;-145.10;98.26
56334;BME280;42240;53.626;55.886;2023-11-19T08:34:33;78182.53;;;-145.10;96.37
56334;BME280;42240;53.626;55.886;2023-11-19T08:36:24;78178.56;;;-145.10;99.19
56334;BME280;42240;53.626;55.886;2023-11-19T08:38:16;78162.75;;;-145.10;99.08
56334;BME280;42240;53.626;55.886;2023-11-19T08:40:21;78125.16;;;-145.10;98.50
56334;BME280;42240;53.626;55.886;2023-11-19T08:42:12;78129.13;;;-145.10;97.66
56334;BME280;42240;53.626;55.886;2023-11-19T08:44:04;78139.03;;;-145.10;98.05
56334;BME280;42240;53.626;55.886;2023-11-19T08:45:55;78162.75;;;-145.10;97.98
56334;BME280;42240;53.626;55.886;2023-11-19T08:47:46;78142.97;;;-145.10;96.40
56334;BME280;42240;53.626;55.886;2023-11-19T08:49:38;78146.94;;;-145.10;94.50
56334;BME280;42240;53.626;55.886;2023-11-19T08:51:30;78127.16;;;-145.10;96.09
56334;BME280;42240;53.626;55.886;2023-11-19T08:53:21;78119.22;;;-145.10;95.87
56334;BME280;42240;53.626;55.886;2023-11-19T08:55:12;78131.09;;;-145.10;96.36
56334;BME280;42240;53.626;55.886;2023-11-19T08:57:04;78156.81;;;-145.10;98.18
56334;BME280;42240;53.626;55.886;2023-11-19T08:58:58;78113.31;;;-145.10;98.56
56334;BME280;42240;53.626;55.886;2023-11-19T09:00:50;78121.22;;;-145.10;98.36
56334;BME280;42240;53.626;55.886;2023-11-19T09:02:41;78107.38;;;-145.10;97.67
56334;BME280;42240;53.626;55.886;2023-11-19T09:04:34;78127.16;;;-145.10;96.79
56334;BME280;42240;53.626;55.886;2023-11-19T09:06:25;78095.50;;;-145.10;96.55
56334;BME280;42240;53.626;55.886;2023-11-19T09:08:17;78111.31;;;-145.10;96.01
56334;BME280;42240;53.626;55.886;2023-11-19T09:10:08;78107.38;;;-145.10;96.14
56334;BME280;42240;53.626;55.886;2023-11-19T09:12:00;78089.56;;;-145.10;97.04
56334;BME280;42240;53.626;55.886;2023-11-19T09:13:51;78111.31;;;-145.10;97.92
56334;BME280;42240;53.626;55.886;2023-11-19T09:15:43;78099.44;;;-145.10;98.37
56334;BME280;42240;53.626;55.886;2023-11-19T09:17:35;78085.59;;;-145.10;99.05
56334;BME280;42240;53.626;55.886;2023-11-19T09:19:26;78089.56;;;-145.10;97.12
56334;BME280;42240;53.626;55.886;2023-11-19T09:21:18;78123.19;;;-145.10;97.12
56334;BME280;42240;53.626;55.886;2023-11-19T09:23:09;78095.50;;;-145.10;95.63
56334;BME280;42240;53.626;55.886;2023-11-19T09:25:01;78095.50;;;-145.10;95.74
56334;BME280;42240;53.626;55.886;2023-11-19T09:26:52;78077.69;;;-145.10;96.91
56334;BME280;42240;53.626;55.886;2023-11-19T09:28:45;78111.31;;;-145.10;95.49